createdAt,value
2023-03-19T00:00:30.990Z,8.62
2023-03-19T00:02:57.693Z,8.68
2023-03-19T00:05:24.382Z,8.73
2023-03-19T00:07:51.349Z,8.79
2023-03-19T00:10:18.335Z,8.87
2023-03-19T00:12:44.998Z,8.86
2023-03-19T00:15:14.844Z,8.86
2023-03-19T00:17:41.930Z,8.87
2023-03-19T00:20:11.709Z,8.79
2023-03-19T00:22:41.388Z,8.76
2023-03-19T00:25:08.743Z,8.72
2023-03-19T00:27:36.498Z,8.75
2023-03-19T00:30:04.905Z,8.79
2023-03-19T00:32:33.625Z,8.84
2023-03-19T00:35:03.879Z,8.82
2023-03-19T00:37:33.171Z,8.81
2023-03-19T00:39:59.889Z,8.86
2023-03-19T00:42:29.417Z,8.86
2023-03-19T00:44:58.256Z,8.82
2023-03-19T00:47:27.861Z,8.80
2023-03-19T00:49:54.522Z,8.79
2023-03-19T00:52:21.354Z,8.68
2023-03-19T00:54:50.259Z,8.71
2023-03-19T00:57:19.548Z,8.74
2023-03-19T00:59:46.185Z,8.63
2023-03-19T01:02:15.479Z,8.62
2023-03-19T01:04:44.607Z,8.58
2023-03-19T01:07:11.565Z,8.53
2023-03-19T01:09:38.215Z,8.45
2023-03-19T01:12:05.009Z,8.36
2023-03-19T01:14:32.447Z,8.27
2023-03-19T01:17:03.491Z,8.21
2023-03-19T01:19:35.120Z,8.29
2023-03-19T01:22:02.231Z,8.33
2023-03-19T01:24:31.429Z,8.36
2023-03-19T01:26:58.270Z,8.27
2023-03-19T01:29:35.442Z,8.26
2023-03-19T01:32:13.028Z,8.06
2023-03-19T01:35:00.485Z,7.88
2023-03-19T01:37:28.289Z,7.90
2023-03-19T01:39:57.717Z,7.78
2023-03-19T01:42:28.085Z,7.83
2023-03-19T01:45:28.155Z,7.73
2023-03-19T01:48:20.450Z,7.64
2023-03-19T01:50:59.138Z,7.63
2023-03-19T01:53:40.627Z,7.54
2023-03-19T01:56:43.456Z,7.61
2023-03-19T01:59:25.828Z,7.59
2023-03-19T02:02:14.332Z,7.53
2023-03-19T02:04:43.820Z,7.44
2023-03-19T02:07:13.880Z,7.28
2023-03-19T02:09:41.261Z,7.22
2023-03-19T02:12:08.623Z,7.27
2023-03-19T02:14:41.628Z,7.29
2023-03-19T02:17:08.654Z,7.33
2023-03-19T02:19:42.067Z,7.34
2023-03-19T02:22:09.650Z,7.37
2023-03-19T02:24:38.023Z,7.35
2023-03-19T02:27:09.869Z,7.39
2023-03-19T02:29:41.155Z,7.35
2023-03-19T02:32:08.157Z,7.30
2023-03-19T02:34:38.004Z,7.27
2023-03-19T02:37:13.781Z,7.22
2023-03-19T02:39:47.197Z,7.17
2023-03-19T02:42:19.732Z,7.18
2023-03-19T02:44:48.856Z,7.17
2023-03-19T02:47:20.495Z,7.19
2023-03-19T02:49:47.398Z,7.16
2023-03-19T02:52:14.937Z,7.16
2023-03-19T02:54:43.877Z,7.19
2023-03-19T02:57:13.323Z,7.20
2023-03-19T02:59:41.462Z,7.22
2023-03-19T03:02:10.335Z,7.20
2023-03-19T03:04:37.883Z,7.26
2023-03-19T03:07:04.943Z,7.36
2023-03-19T03:09:34.547Z,7.42
2023-03-19T03:12:01.387Z,7.42
2023-03-19T03:14:30.539Z,7.44
2023-03-19T03:16:57.464Z,7.48
2023-03-19T03:19:28.318Z,7.49
2023-03-19T03:21:54.927Z,7.45
2023-03-19T03:24:24.641Z,7.38
2023-03-19T03:26:56.664Z,7.41
2023-03-19T03:29:25.602Z,7.48
2023-03-19T03:31:52.448Z,7.31
2023-03-19T03:34:19.178Z,7.27
2023-03-19T03:36:48.060Z,7.22
2023-03-19T03:39:14.761Z,7.18
2023-03-19T03:41:44.326Z,7.15
2023-03-19T03:44:11.022Z,7.10
2023-03-19T03:46:39.784Z,6.86
2023-03-19T03:49:09.679Z,6.91
2023-03-19T03:51:37.436Z,6.95
2023-03-19T03:54:09.081Z,6.94
2023-03-19T03:56:36.455Z,6.92
2023-03-19T03:59:03.856Z,6.94
2023-03-19T04:01:30.802Z,6.89
2023-03-19T04:03:58.097Z,6.88
2023-03-19T04:06:27.065Z,6.81
2023-03-19T04:09:14.378Z,6.82
2023-03-19T04:11:42.282Z,6.78
2023-03-19T04:14:09.151Z,6.69
2023-03-19T04:16:39.295Z,6.73
2023-03-19T04:19:08.593Z,6.65
2023-03-19T04:21:35.349Z,6.59
2023-03-19T04:24:04.326Z,6.54
2023-03-19T04:26:30.949Z,6.40
2023-03-19T04:28:58.881Z,6.34
2023-03-19T04:31:26.998Z,6.29
2023-03-19T04:33:55.047Z,6.30
2023-03-19T04:36:21.675Z,6.09
2023-03-19T04:38:48.941Z,5.89
2023-03-19T04:41:19.420Z,5.79
2023-03-19T04:44:05.966Z,5.84
2023-03-19T04:46:36.628Z,5.85
2023-03-19T04:49:03.339Z,5.91
2023-03-19T04:51:33.255Z,5.96
2023-03-19T04:54:00.553Z,5.95
2023-03-19T04:56:36.330Z,5.99
2023-03-19T04:59:05.340Z,5.85
2023-03-19T05:01:37.012Z,5.86
2023-03-19T05:04:07.304Z,5.98
2023-03-19T05:06:38.333Z,6.13
2023-03-19T05:09:08.301Z,6.19
2023-03-19T05:11:35.109Z,6.22
2023-03-19T05:14:09.697Z,6.34
2023-03-19T05:16:59.687Z,6.35
2023-03-19T05:19:36.786Z,6.35
2023-03-19T05:22:18.076Z,6.24
2023-03-19T05:25:41.509Z,6.29
2023-03-19T05:28:13.246Z,6.36
2023-03-19T05:30:45.531Z,6.27
2023-03-19T05:33:35.031Z,6.28
2023-03-19T05:36:01.895Z,6.17
2023-03-19T05:39:16.391Z,6.15
2023-03-19T05:50:48.466Z,6.45
2023-03-19T06:13:14.737Z,6.89
2023-03-19T06:17:06.481Z,6.80
2023-03-19T06:23:29.757Z,6.84
2023-03-19T06:29:34.279Z,6.81
2023-03-19T06:43:14.750Z,7.43
2023-03-19T06:47:05.120Z,7.64
2023-03-19T06:49:54.387Z,7.70
2023-03-19T06:52:33.915Z,7.79
2023-03-19T06:55:01.794Z,8.05
2023-03-19T06:57:30.690Z,8.22
2023-03-19T07:00:01.096Z,8.34
2023-03-19T07:02:30.822Z,8.40
2023-03-19T07:05:01.150Z,8.47
2023-03-19T07:25:34.713Z,9.07
2023-03-19T07:28:01.436Z,8.96
2023-03-19T07:30:28.294Z,8.86
2023-03-19T07:32:57.336Z,8.87
2023-03-19T07:35:24.019Z,8.87
2023-03-19T07:37:50.786Z,8.81
2023-03-19T07:40:21.816Z,8.81
2023-03-19T07:42:51.350Z,8.81
2023-03-19T07:45:20.613Z,8.92
2023-03-19T07:47:52.636Z,9.12
2023-03-19T07:50:19.291Z,9.36
2023-03-19T07:52:47.350Z,9.61
2023-03-19T07:55:14.454Z,9.69
2023-03-19T07:57:41.132Z,9.69
2023-03-19T08:00:11.177Z,9.81
2023-03-19T08:02:48.269Z,9.94
2023-03-19T08:05:17.550Z,9.97
2023-03-19T08:07:47.832Z,9.97
2023-03-19T08:10:17.000Z,9.87
2023-03-19T08:12:43.559Z,9.99
2023-03-19T08:15:11.096Z,10.25
2023-03-19T08:17:45.274Z,10.40
2023-03-19T08:20:13.114Z,10.58
2023-03-19T08:22:40.540Z,10.74
2023-03-19T08:25:07.643Z,10.86
2023-03-19T08:27:37.062Z,10.94
2023-03-19T08:30:04.675Z,11.03
2023-03-19T08:32:31.627Z,11.14
2023-03-19T08:35:01.423Z,10.78
2023-03-19T08:37:28.106Z,10.61
2023-03-19T08:39:54.837Z,10.51
2023-03-19T08:42:22.142Z,10.56
2023-03-19T08:44:49.076Z,10.60
2023-03-19T08:47:15.842Z,10.76
2023-03-19T08:49:44.852Z,10.80
2023-03-19T08:52:11.756Z,11.10
2023-03-19T08:54:40.971Z,11.27
2023-03-19T08:57:08.675Z,11.45
2023-03-19T08:59:37.951Z,11.61
2023-03-19T09:02:04.544Z,11.91
2023-03-19T09:04:37.407Z,12.13
2023-03-19T09:07:06.547Z,12.15
2023-03-19T09:09:33.402Z,12.30
2023-03-19T09:12:02.594Z,12.47
2023-03-19T09:14:31.499Z,12.58
2023-03-19T09:16:58.072Z,12.68
2023-03-19T09:19:24.741Z,12.72
2023-03-19T09:21:53.929Z,12.42
2023-03-19T09:24:20.571Z,12.22
2023-03-19T09:26:49.704Z,12.46
2023-03-19T09:29:16.806Z,12.72
2023-03-19T09:31:43.696Z,12.96
2023-03-19T09:34:10.354Z,13.22
2023-03-19T09:36:38.008Z,13.45
2023-03-19T09:39:08.024Z,13.55
2023-03-19T09:41:52.938Z,13.77
2023-03-19T09:44:29.401Z,13.98
2023-03-19T09:47:01.863Z,13.99
2023-03-19T09:49:32.593Z,13.89
2023-03-19T09:52:19.475Z,14.00
2023-03-19T09:54:49.283Z,14.33
2023-03-19T09:57:17.526Z,14.55
2023-03-19T09:59:47.368Z,14.66
2023-03-19T10:02:22.769Z,14.48
2023-03-19T10:05:01.650Z,14.58
2023-03-19T10:07:44.843Z,14.81
2023-03-19T10:10:11.511Z,15.02
2023-03-19T10:12:42.349Z,15.21
2023-03-19T10:15:18.377Z,15.55
2023-03-19T10:17:52.594Z,15.74
2023-03-19T10:20:25.912Z,15.48
2023-03-19T10:22:54.775Z,15.51
2023-03-19T10:25:26.502Z,15.28
2023-03-19T10:27:57.321Z,15.14
2023-03-19T10:30:24.323Z,14.99
2023-03-19T10:32:55.207Z,15.01
2023-03-19T10:35:27.801Z,15.19
2023-03-19T10:37:55.945Z,15.57
2023-03-19T10:40:24.871Z,15.77
2023-03-19T10:43:23.184Z,16.00
2023-03-19T10:45:49.837Z,16.07
2023-03-19T10:48:19.936Z,16.10
2023-03-19T10:51:02.649Z,15.79
2023-03-19T10:53:34.436Z,16.30
2023-03-19T10:56:23.335Z,16.73
2023-03-19T10:59:00.386Z,17.13
2023-03-19T11:01:32.387Z,17.15
2023-03-19T11:04:00.223Z,16.96
2023-03-19T11:06:34.133Z,17.14
2023-03-19T11:09:02.494Z,17.49
2023-03-19T11:11:40.252Z,17.56
2023-03-19T11:14:19.393Z,17.90
2023-03-19T11:17:04.461Z,17.82
2023-03-19T11:19:37.965Z,18.08
2023-03-19T11:22:08.101Z,18.34
2023-03-19T11:24:40.574Z,18.73
2023-03-19T11:27:08.181Z,18.95
2023-03-19T11:29:39.426Z,19.12
2023-03-19T11:32:20.807Z,19.26
2023-03-19T11:34:53.893Z,19.24
2023-03-19T11:37:28.940Z,19.10
2023-03-19T11:39:56.197Z,19.45
2023-03-19T11:42:48.430Z,19.84
2023-03-19T11:45:18.817Z,20.16
2023-03-19T11:47:45.909Z,20.06
2023-03-19T11:50:52.342Z,19.40
2023-03-19T11:53:22.766Z,19.15
2023-03-19T11:55:59.107Z,19.40
2023-03-19T11:58:35.327Z,19.71
2023-03-19T12:01:06.221Z,20.11
2023-03-19T12:03:52.285Z,20.52
2023-03-19T12:06:24.844Z,20.90
2023-03-19T12:09:01.937Z,21.26
2023-03-19T12:11:31.230Z,21.00
2023-03-19T12:14:09.756Z,21.08
2023-03-19T12:16:46.219Z,21.47
2023-03-19T12:19:30.324Z,21.46
2023-03-19T12:22:13.653Z,21.43
2023-03-19T12:24:40.380Z,21.39
2023-03-19T12:27:25.693Z,21.73
2023-03-19T12:30:01.459Z,21.79
2023-03-19T12:32:48.797Z,22.24
2023-03-19T12:35:17.273Z,22.62
2023-03-19T12:37:47.624Z,22.99
2023-03-19T12:40:28.159Z,23.04
2023-03-19T12:42:59.099Z,23.10
2023-03-19T12:45:32.689Z,23.13
2023-03-19T12:48:07.372Z,23.15
2023-03-19T12:50:36.911Z,23.42
2023-03-19T12:53:08.129Z,23.86
2023-03-19T12:55:38.967Z,23.91
2023-03-19T12:58:14.792Z,23.68
2023-03-19T13:00:57.829Z,23.69
2023-03-19T13:03:29.904Z,23.66
2023-03-19T13:06:19.652Z,23.64
2023-03-19T13:09:09.577Z,23.66
2023-03-19T13:11:39.652Z,24.45
2023-03-19T13:14:15.509Z,24.96
2023-03-19T13:16:56.704Z,25.09
2023-03-19T13:19:32.540Z,25.48
2023-03-19T13:22:02.407Z,25.42
2023-03-19T13:24:36.469Z,24.79
2023-03-19T13:27:03.164Z,24.48
2023-03-19T13:29:34.024Z,24.92
2023-03-19T13:32:10.547Z,25.03
2023-03-19T13:34:45.953Z,24.52
2023-03-19T13:39:58.631Z,23.33
2023-03-19T13:43:28.307Z,23.24
2023-03-19T13:56:30.362Z,23.41
2023-03-19T13:59:17.816Z,22.88
2023-03-19T14:01:47.525Z,22.57
2023-03-19T14:04:30.877Z,22.36
2023-03-19T14:07:00.894Z,22.16
2023-03-19T14:09:32.145Z,21.81
2023-03-19T14:12:21.308Z,21.52
2023-03-19T14:14:54.106Z,21.48
2023-03-19T14:17:30.699Z,21.74
2023-03-19T14:20:07.167Z,22.10
2023-03-19T14:22:38.586Z,22.41
2023-03-19T14:25:19.431Z,22.79
2023-03-19T14:27:52.494Z,23.08
2023-03-19T14:30:39.125Z,22.95
2023-03-19T14:33:15.696Z,22.91
2023-03-19T14:35:43.098Z,23.05
2023-03-19T14:38:28.410Z,22.93
2023-03-19T14:40:55.285Z,22.72
2023-03-19T14:43:40.771Z,22.45
2023-03-19T14:46:09.911Z,22.22
2023-03-19T14:48:58.037Z,21.95
2023-03-19T14:51:44.916Z,22.04
2023-03-19T14:54:19.340Z,23.46
2023-03-19T14:56:50.932Z,25.04
2023-03-19T14:59:18.957Z,25.98
2023-03-19T15:01:48.542Z,27.39
2023-03-19T15:04:15.977Z,27.54
2023-03-19T15:06:43.510Z,27.31
2023-03-19T15:09:12.631Z,28.15
2023-03-19T15:11:51.661Z,28.76
2023-03-19T15:14:24.443Z,29.33
2023-03-19T15:16:54.580Z,29.64
2023-03-19T15:19:28.286Z,29.81
2023-03-19T15:22:05.108Z,28.76
2023-03-19T15:24:36.606Z,28.82
2023-03-19T15:27:21.170Z,28.59
2023-03-19T15:29:49.271Z,27.36
2023-03-19T15:32:52.199Z,25.64
2023-03-19T15:35:23.574Z,25.21
2023-03-19T15:37:54.325Z,24.57
2023-03-19T15:40:25.627Z,24.05
2023-03-19T15:42:52.375Z,23.49
2023-03-19T15:45:20.019Z,23.09
2023-03-19T15:47:52.204Z,23.06
2023-03-19T15:50:20.297Z,22.65
2023-03-19T15:52:54.293Z,22.48
2023-03-19T15:55:24.983Z,21.88
2023-03-19T15:57:55.716Z,21.30
2023-03-19T16:00:25.443Z,20.99
2023-03-19T16:02:52.176Z,20.63
2023-03-19T16:05:28.519Z,20.41
2023-03-19T16:07:57.568Z,20.48
2023-03-19T16:10:40.887Z,20.44
2023-03-19T16:13:28.283Z,20.05
2023-03-19T16:15:56.951Z,19.97
2023-03-19T16:18:24.696Z,19.95
2023-03-19T16:21:10.600Z,19.81
2023-03-19T16:23:38.928Z,19.55
2023-03-19T16:26:06.795Z,19.46
2023-03-19T16:28:33.554Z,19.45
2023-03-19T16:31:00.257Z,19.16
2023-03-19T16:33:27.276Z,18.74
2023-03-19T16:35:56.408Z,18.38
2023-03-19T16:38:26.023Z,18.14
2023-03-19T16:41:16.118Z,18.02
2023-03-19T16:43:46.458Z,18.03
2023-03-19T16:46:13.695Z,18.08
2023-03-19T16:48:40.382Z,17.93
2023-03-19T16:51:18.069Z,17.83
2023-03-19T16:53:47.928Z,17.81
2023-03-19T16:56:15.053Z,17.82
2023-03-19T16:58:44.592Z,17.76
2023-03-19T17:01:13.087Z,17.74
2023-03-19T17:03:39.924Z,17.70
2023-03-19T17:06:09.467Z,17.68
2023-03-19T17:08:36.271Z,17.75
2023-03-19T17:11:03.201Z,17.74
2023-03-19T17:13:32.492Z,17.65
2023-03-19T17:16:05.332Z,17.54
2023-03-19T17:18:35.030Z,17.46
2023-03-19T17:21:01.660Z,17.45
2023-03-19T17:23:28.327Z,17.42
2023-03-19T17:26:00.131Z,17.44
2023-03-19T17:28:26.730Z,17.44
2023-03-19T17:30:53.331Z,17.39
2023-03-19T17:33:27.051Z,17.26
2023-03-19T17:35:54.487Z,17.13
2023-03-19T17:38:24.435Z,16.98
2023-03-19T17:40:51.000Z,16.84
2023-03-19T17:43:20.169Z,16.83
2023-03-19T17:45:48.524Z,16.76
2023-03-19T17:48:18.978Z,16.81
2023-03-19T17:50:48.512Z,16.82
2023-03-19T17:53:16.860Z,16.81
2023-03-19T17:55:43.613Z,16.78
2023-03-19T17:58:17.410Z,16.72
2023-03-19T18:00:44.447Z,16.75
2023-03-19T18:03:13.708Z,16.75
2023-03-19T18:05:40.389Z,16.74
2023-03-19T18:08:09.353Z,16.77
2023-03-19T18:10:37.151Z,16.77
2023-03-19T18:13:05.612Z,16.71
2023-03-19T18:15:34.619Z,16.68
2023-03-19T18:18:01.921Z,16.66
2023-03-19T18:20:29.700Z,16.61
2023-03-19T18:23:01.351Z,16.58
2023-03-19T18:25:28.294Z,16.51
2023-03-19T18:27:55.069Z,16.42
2023-03-19T18:30:22.308Z,16.46
2023-03-19T18:32:53.419Z,16.44
2023-03-19T18:35:25.260Z,16.42
2023-03-19T18:37:52.190Z,16.35
2023-03-19T18:40:20.507Z,16.26
2023-03-19T18:42:49.706Z,16.27
2023-03-19T18:45:17.379Z,16.20
2023-03-19T18:47:48.129Z,16.11
2023-03-19T18:50:17.955Z,16.11
2023-03-19T18:52:47.527Z,16.09
2023-03-19T18:55:14.532Z,16.02
2023-03-19T18:57:52.644Z,15.99
2023-03-19T19:00:21.147Z,15.96
2023-03-19T19:02:48.256Z,16.03
2023-03-19T19:05:19.890Z,16.07
2023-03-19T19:07:48.916Z,16.05
2023-03-19T19:10:18.148Z,16.01
2023-03-19T19:12:46.274Z,15.96
2023-03-19T19:15:32.855Z,15.86
2023-03-19T19:17:59.426Z,15.78
2023-03-19T19:20:27.671Z,15.78
2023-03-19T19:22:54.422Z,15.74
2023-03-19T19:25:22.206Z,15.70
2023-03-19T19:27:52.436Z,15.73
2023-03-19T19:30:20.453Z,15.76
2023-03-19T19:32:49.592Z,15.69
2023-03-19T19:35:22.761Z,15.70
2023-03-19T19:37:50.364Z,15.74
2023-03-19T19:40:21.057Z,15.73
2023-03-19T19:42:52.015Z,15.69
2023-03-19T19:45:21.932Z,15.71
2023-03-19T19:47:49.138Z,15.72
2023-03-19T19:50:18.845Z,15.70
2023-03-19T19:52:45.810Z,15.74
2023-03-19T19:55:12.402Z,15.59
2023-03-19T19:57:43.937Z,15.56
2023-03-19T20:00:24.082Z,15.54
2023-03-19T20:02:51.206Z,15.53
2023-03-19T20:05:19.499Z,15.51
2023-03-19T20:07:48.985Z,15.45
2023-03-19T20:10:15.741Z,15.43
2023-03-19T20:12:44.642Z,15.38
2023-03-19T20:15:15.842Z,15.31
2023-03-19T20:17:42.559Z,15.28
2023-03-19T20:20:20.747Z,15.20
2023-03-19T20:22:47.913Z,15.16
2023-03-19T20:25:14.875Z,15.17
2023-03-19T20:27:41.598Z,15.08
2023-03-19T20:30:12.947Z,15.01
2023-03-19T20:32:39.613Z,14.91
2023-03-19T20:35:11.207Z,14.87
2023-03-19T20:37:40.113Z,14.79
2023-03-19T20:40:07.014Z,14.72
2023-03-19T20:42:35.440Z,14.60
2023-03-19T20:45:04.751Z,14.62
2023-03-19T20:47:33.182Z,14.55
2023-03-19T20:50:00.037Z,14.51
2023-03-19T20:52:26.703Z,14.41
2023-03-19T20:54:53.388Z,14.32
2023-03-19T20:57:22.926Z,14.28
2023-03-19T20:59:49.516Z,14.23
2023-03-19T21:02:19.702Z,14.21
2023-03-19T21:04:46.623Z,14.11
2023-03-19T21:07:22.775Z,13.95
2023-03-19T21:09:52.078Z,13.86
2023-03-19T21:12:34.004Z,13.80
2023-03-19T21:15:03.044Z,13.74
2023-03-19T21:17:29.749Z,13.78
2023-03-19T21:19:57.631Z,13.78
2023-03-19T21:22:28.541Z,13.80
2023-03-19T21:25:06.084Z,13.74
2023-03-19T21:27:35.854Z,13.64
2023-03-19T21:30:04.135Z,13.65
2023-03-19T21:32:33.140Z,13.66
2023-03-19T21:35:02.564Z,13.58
2023-03-19T21:37:31.891Z,13.53
2023-03-19T21:39:58.956Z,13.38
2023-03-19T21:42:25.653Z,13.27
2023-03-19T21:44:52.918Z,13.17
2023-03-19T21:47:22.944Z,13.15
2023-03-19T21:49:49.939Z,12.97
2023-03-19T21:52:17.769Z,12.86
2023-03-19T21:54:44.376Z,12.90
2023-03-19T21:57:14.418Z,12.85
2023-03-19T21:59:41.091Z,12.91
2023-03-19T22:02:22.453Z,13.02
2023-03-19T22:04:49.190Z,13.01
2023-03-19T22:07:18.735Z,12.99
2023-03-19T22:09:46.789Z,13.13
2023-03-19T22:12:33.570Z,13.16
2023-03-19T22:15:02.971Z,13.24
2023-03-19T22:17:32.204Z,13.29
2023-03-19T22:20:01.359Z,13.33
2023-03-19T22:22:32.328Z,13.37
2023-03-19T22:25:00.379Z,13.31
2023-03-19T22:27:27.093Z,13.13
2023-03-19T22:29:53.730Z,13.06
2023-03-19T22:32:20.495Z,12.98
2023-03-19T22:34:47.245Z,12.93
2023-03-19T22:37:22.594Z,12.99
2023-03-19T22:39:49.270Z,13.05
2023-03-19T22:42:18.560Z,13.08
2023-03-19T22:44:45.247Z,13.01
2023-03-19T22:47:24.451Z,12.93
2023-03-19T22:49:51.161Z,12.95
2023-03-19T22:52:17.928Z,12.98
2023-03-19T22:54:44.830Z,13.01
2023-03-19T22:57:20.036Z,12.98
2023-03-19T22:59:46.948Z,12.97
2023-03-19T23:02:16.247Z,12.95
2023-03-19T23:04:42.850Z,12.95
2023-03-19T23:07:12.980Z,12.97
2023-03-19T23:09:39.658Z,12.94
2023-03-19T23:12:10.877Z,12.97
2023-03-19T23:14:39.597Z,12.92
2023-03-19T23:17:17.500Z,12.86
2023-03-19T23:19:44.362Z,12.68
2023-03-19T23:22:14.445Z,12.62
2023-03-19T23:24:44.800Z,12.55
2023-03-19T23:27:18.139Z,12.60
2023-03-19T23:29:47.392Z,12.59
2023-03-19T23:32:14.334Z,12.58
2023-03-19T23:34:57.757Z,12.55
2023-03-19T23:37:30.982Z,12.42
2023-03-19T23:39:58.000Z,12.39
2023-03-19T23:42:31.500Z,12.35
2023-03-19T23:45:01.471Z,12.31
2023-03-19T23:47:28.212Z,12.28
2023-03-19T23:49:54.844Z,12.25
2023-03-19T23:52:21.422Z,12.23
2023-03-19T23:54:52.645Z,12.24
2023-03-19T23:57:22.360Z,12.22
2023-03-19T23:59:51.292Z,12.24
